Live aus Altenrhein
LIVE
LSZR 281320Z 27004KT CAVOK 16/08 Q1024 NOSIG RMK J

People´s Info Center:

Öffnungszeiten Mo-Fr, 8-18 Uhr

 

info@peoples.ch

 
Aus Österreich:

T: +43 (0)5572 203 610

 

Aus CH / LI / DE:

T: +41 (0)71 858 51 60

 

Aktueller Timetable / Live Flugstatus

Flughafen St.Gallen-Altenrhein.


Ankünfte in St. Gallen-Altenrhein
Plan Erw. von Flug Info
09:10 09:10 Wien PE101
gelandet
10:10 10:10 Friedrichshafen PE201
gelandet
10:10 10:30 Köln/Bonn PE201
gelandet
13:50 13:50 Wien PE103
gelandet
16:50 16:50 Wien PE105
erwartet
20:55 20:55 Wien PE107
planmässig
21:00 21:00 Friedrichshafen PE203
planmässig
21:00 21:00 Köln/Bonn PE203
planmässig

Shuttlebus online buchen

Altenrhein - Vorarlberg ->hier buchen

 

Abflüge von St. Gallen-Altenrhein
Plan Erw. nach Flug Info
06:30 06:30 Wien PE100
gelandet
06:30 06:30 Köln/Bonn PE200
gelandet
06:30 06:30 Friedrichshafen PE200
gelandet
10:40 10:40 Wien PE102
gelandet
14:20 14:20 Wien PE104
gelandet
17:20 17:20 Friedrichshafen PE202
planmässig
17:20 17:20 Köln/Bonn PE202
planmässig
18:15 18:15 Wien PE106
planmässig

People's Info Center

T. +43 (0)5572 203 610

T. +41 (0)71 858 51 60